sensor_id;sensor_type;location;lat;lon;timestamp;temperature;humidity
47532;DHT22;33273;52.254;7.988;2023-03-30T00:01:13;11.00;94.80
47532;DHT22;33273;52.254;7.988;2023-03-30T00:03:43;11.00;95.10
47532;DHT22;33273;52.254;7.988;2023-03-30T00:06:10;11.10;95.10
47532;DHT22;33273;52.254;7.988;2023-03-30T00:08:38;11.00;94.70
47532;DHT22;33273;52.254;7.988;2023-03-30T00:11:14;11.10;95.20
47532;DHT22;33273;52.254;7.988;2023-03-30T00:13:42;11.10;95.00
47532;DHT22;33273;52.254;7.988;2023-03-30T00:16:11;11.10;94.90
47532;DHT22;33273;52.254;7.988;2023-03-30T00:18:38;11.10;94.90
47532;DHT22;33273;52.254;7.988;2023-03-30T00:21:05;11.10;94.70
47532;DHT22;33273;52.254;7.988;2023-03-30T00:23:32;11.10;94.30
47532;DHT22;33273;52.254;7.988;2023-03-30T00:25:59;11.10;94.30
47532;DHT22;33273;52.254;7.988;2023-03-30T00:28:26;11.10;93.80
47532;DHT22;33273;52.254;7.988;2023-03-30T00:30:57;11.10;93.60
47532;DHT22;33273;52.254;7.988;2023-03-30T00:33:24;11.10;93.30
47532;DHT22;33273;52.254;7.988;2023-03-30T00:35:56;11.10;93.30
47532;DHT22;33273;52.254;7.988;2023-03-30T00:38:22;11.10;92.90
47532;DHT22;33273;52.254;7.988;2023-03-30T00:40:59;11.20;92.10
47532;DHT22;33273;52.254;7.988;2023-03-30T00:43:27;11.20;91.70
47532;DHT22;33273;52.254;7.988;2023-03-30T00:45:59;11.20;91.30
47532;DHT22;33273;52.254;7.988;2023-03-30T00:48:34;11.20;90.90
47532;DHT22;33273;52.254;7.988;2023-03-30T00:51:06;11.20;90.60
47532;DHT22;33273;52.254;7.988;2023-03-30T00:53:37;11.20;90.50
47532;DHT22;33273;52.254;7.988;2023-03-30T00:56:07;11.20;90.30
47532;DHT22;33273;52.254;7.988;2023-03-30T00:58:35;11.20;90.20
47532;DHT22;33273;52.254;7.988;2023-03-30T01:01:03;11.20;90.10
47532;DHT22;33273;52.254;7.988;2023-03-30T01:03:33;11.20;89.80
47532;DHT22;33273;52.254;7.988;2023-03-30T01:06:06;11.20;89.60
47532;DHT22;33273;52.254;7.988;2023-03-30T01:08:33;11.30;89.30
47532;DHT22;33273;52.254;7.988;2023-03-30T01:11:04;11.20;88.80
47532;DHT22;33273;52.254;7.988;2023-03-30T01:13:34;11.30;88.70
47532;DHT22;33273;52.254;7.988;2023-03-30T01:30:53;11.20;88.00
47532;DHT22;33273;52.254;7.988;2023-03-30T01:44:38;11.20;86.30
47532;DHT22;33273;52.254;7.988;2023-03-30T01:46:43;11.20;86.10
47532;DHT22;33273;52.254;7.988;2023-03-30T01:52:28;11.30;86.20
47532;DHT22;33273;52.254;7.988;2023-03-30T01:55:07;11.30;86.00
47532;DHT22;33273;52.254;7.988;2023-03-30T02:00:16;11.20;85.80
47532;DHT22;33273;52.254;7.988;2023-03-30T02:02:59;11.30;85.70
47532;DHT22;33273;52.254;7.988;2023-03-30T02:05:27;11.30;85.30
47532;DHT22;33273;52.254;7.988;2023-03-30T02:08:00;11.30;84.80
47532;DHT22;33273;52.254;7.988;2023-03-30T02:10:30;11.40;84.20
47532;DHT22;33273;52.254;7.988;2023-03-30T02:12:58;11.50;82.50
47532;DHT22;33273;52.254;7.988;2023-03-30T02:15:31;11.60;81.00
47532;DHT22;33273;52.254;7.988;2023-03-30T02:17:58;11.70;79.60
47532;DHT22;33273;52.254;7.988;2023-03-30T02:20:25;11.70;78.30
47532;DHT22;33273;52.254;7.988;2023-03-30T02:22:53;11.80;76.80
47532;DHT22;33273;52.254;7.988;2023-03-30T02:25:20;11.80;75.70
47532;DHT22;33273;52.254;7.988;2023-03-30T02:27:46;11.90;74.20
47532;DHT22;33273;52.254;7.988;2023-03-30T02:30:13;12.00;72.50
47532;DHT22;33273;52.254;7.988;2023-03-30T02:32:54;12.00;72.50
47532;DHT22;33273;52.254;7.988;2023-03-30T02:43:36;12.00;70.90
47532;DHT22;33273;52.254;7.988;2023-03-30T02:49:11;12.00;71.20
47532;DHT22;33273;52.254;7.988;2023-03-30T02:51:48;12.00;70.70
47532;DHT22;33273;52.254;7.988;2023-03-30T02:54:49;12.10;68.90
47532;DHT22;33273;52.254;7.988;2023-03-30T03:00:10;12.10;68.10
47532;DHT22;33273;52.254;7.988;2023-03-30T03:02:46;12.10;67.70
47532;DHT22;33273;52.254;7.988;2023-03-30T03:05:23;12.10;67.40
47532;DHT22;33273;52.254;7.988;2023-03-30T03:08:16;12.20;66.90
47532;DHT22;33273;52.254;7.988;2023-03-30T03:10:45;12.20;67.00
47532;DHT22;33273;52.254;7.988;2023-03-30T03:13:14;12.20;66.80
47532;DHT22;33273;52.254;7.988;2023-03-30T03:15:42;12.20;66.20
47532;DHT22;33273;52.254;7.988;2023-03-30T03:18:11;12.20;65.70
47532;DHT22;33273;52.254;7.988;2023-03-30T03:20:39;12.30;66.00
47532;DHT22;33273;52.254;7.988;2023-03-30T03:23:06;12.30;65.20
47532;DHT22;33273;52.254;7.988;2023-03-30T03:25:41;12.30;64.60
47532;DHT22;33273;52.254;7.988;2023-03-30T03:28:09;12.40;63.90
47532;DHT22;33273;52.254;7.988;2023-03-30T03:30:40;12.40;64.20
47532;DHT22;33273;52.254;7.988;2023-03-30T03:33:15;12.40;63.90
47532;DHT22;33273;52.254;7.988;2023-03-30T03:35:48;12.40;63.80
47532;DHT22;33273;52.254;7.988;2023-03-30T03:38:20;12.40;63.20
47532;DHT22;33273;52.254;7.988;2023-03-30T03:40:51;12.50;62.20
47532;DHT22;33273;52.254;7.988;2023-03-30T03:43:18;12.50;62.20
47532;DHT22;33273;52.254;7.988;2023-03-30T03:45:45;12.50;62.00
47532;DHT22;33273;52.254;7.988;2023-03-30T03:48:13;12.50;62.40
47532;DHT22;33273;52.254;7.988;2023-03-30T03:50:49;12.50;62.20
47532;DHT22;33273;52.254;7.988;2023-03-30T03:53:17;12.50;62.10
47532;DHT22;33273;52.254;7.988;2023-03-30T03:55:43;12.50;62.60
47532;DHT22;33273;52.254;7.988;2023-03-30T03:58:10;12.50;62.60
47532;DHT22;33273;52.254;7.988;2023-03-30T04:00:36;12.50;62.30
47532;DHT22;33273;52.254;7.988;2023-03-30T04:03:02;12.50;62.30
47532;DHT22;33273;52.254;7.988;2023-03-30T04:05:29;12.50;62.80
47532;DHT22;33273;52.254;7.988;2023-03-30T04:07:56;12.50;63.00
47532;DHT22;33273;52.254;7.988;2023-03-30T04:10:23;12.50;62.60
47532;DHT22;33273;52.254;7.988;2023-03-30T04:13:11;12.50;63.20
47532;DHT22;33273;52.254;7.988;2023-03-30T04:16:09;12.50;63.10
47532;DHT22;33273;52.254;7.988;2023-03-30T04:18:54;12.50;62.60
47532;DHT22;33273;52.254;7.988;2023-03-30T04:21:25;12.50;63.00
47532;DHT22;33273;52.254;7.988;2023-03-30T04:24:20;12.50;63.10
47532;DHT22;33273;52.254;7.988;2023-03-30T04:27:10;12.50;63.30
47532;DHT22;33273;52.254;7.988;2023-03-30T04:29:51;12.50;63.20
47532;DHT22;33273;52.254;7.988;2023-03-30T04:32:36;12.50;62.70
47532;DHT22;33273;52.254;7.988;2023-03-30T04:35:06;12.50;63.20
47532;DHT22;33273;52.254;7.988;2023-03-30T04:38:04;12.50;63.50
47532;DHT22;33273;52.254;7.988;2023-03-30T04:41:04;12.50;63.30
47532;DHT22;33273;52.254;7.988;2023-03-30T04:43:57;12.50;63.00
47532;DHT22;33273;52.254;7.988;2023-03-30T04:46:49;12.50;63.30
47532;DHT22;33273;52.254;7.988;2023-03-30T04:49:53;12.40;63.70
47532;DHT22;33273;52.254;7.988;2023-03-30T04:52:38;12.40;63.80
47532;DHT22;33273;52.254;7.988;2023-03-30T04:55:27;12.40;64.20
47532;DHT22;33273;52.254;7.988;2023-03-30T04:58:13;12.40;64.20
47532;DHT22;33273;52.254;7.988;2023-03-30T05:00:57;12.40;64.20
47532;DHT22;33273;52.254;7.988;2023-03-30T05:03:55;12.40;64.10
47532;DHT22;33273;52.254;7.988;2023-03-30T05:06:33;12.40;64.50
47532;DHT22;33273;52.254;7.988;2023-03-30T05:09:25;12.40;64.00
47532;DHT22;33273;52.254;7.988;2023-03-30T05:12:05;12.40;63.90
47532;DHT22;33273;52.254;7.988;2023-03-30T05:14:40;12.40;63.80
47532;DHT22;33273;52.254;7.988;2023-03-30T05:17:25;12.40;63.70
47532;DHT22;33273;52.254;7.988;2023-03-30T05:20:20;12.40;63.70
47532;DHT22;33273;52.254;7.988;2023-03-30T05:23:04;12.40;63.80
47532;DHT22;33273;52.254;7.988;2023-03-30T05:25:50;12.40;64.00
47532;DHT22;33273;52.254;7.988;2023-03-30T05:28:35;12.30;64.00
47532;DHT22;33273;52.254;7.988;2023-03-30T05:31:26;12.30;63.80
47532;DHT22;33273;52.254;7.988;2023-03-30T05:34:12;12.30;64.30
47532;DHT22;33273;52.254;7.988;2023-03-30T05:36:56;12.20;64.50
47532;DHT22;33273;52.254;7.988;2023-03-30T05:39:34;12.20;64.40
47532;DHT22;33273;52.254;7.988;2023-03-30T05:42:15;12.20;65.20
47532;DHT22;33273;52.254;7.988;2023-03-30T05:45:07;12.20;65.30
47532;DHT22;33273;52.254;7.988;2023-03-30T05:47:55;12.20;65.20
47532;DHT22;33273;52.254;7.988;2023-03-30T05:50:47;12.30;66.10
47532;DHT22;33273;52.254;7.988;2023-03-30T05:53:30;12.30;66.20
47532;DHT22;33273;52.254;7.988;2023-03-30T05:56:03;12.40;65.50
47532;DHT22;33273;52.254;7.988;2023-03-30T05:58:50;12.50;65.70
47532;DHT22;33273;52.254;7.988;2023-03-30T06:01:41;12.50;65.50
47532;DHT22;33273;52.254;7.988;2023-03-30T06:04:07;12.50;65.20
47532;DHT22;33273;52.254;7.988;2023-03-30T06:06:34;12.50;65.40
47532;DHT22;33273;52.254;7.988;2023-03-30T06:09:01;12.60;65.30
47532;DHT22;33273;52.254;7.988;2023-03-30T06:11:32;12.60;65.20
47532;DHT22;33273;52.254;7.988;2023-03-30T06:14:10;12.60;65.20
47532;DHT22;33273;52.254;7.988;2023-03-30T06:16:43;12.60;65.20
47532;DHT22;33273;52.254;7.988;2023-03-30T06:19:11;12.60;65.50
47532;DHT22;33273;52.254;7.988;2023-03-30T06:21:39;12.60;65.00
47532;DHT22;33273;52.254;7.988;2023-03-30T06:24:29;12.60;65.10
47532;DHT22;33273;52.254;7.988;2023-03-30T06:26:58;12.60;65.30
47532;DHT22;33273;52.254;7.988;2023-03-30T06:29:24;12.70;65.40
47532;DHT22;33273;52.254;7.988;2023-03-30T06:31:50;12.70;65.60
47532;DHT22;33273;52.254;7.988;2023-03-30T06:34:45;12.70;65.80
47532;DHT22;33273;52.254;7.988;2023-03-30T06:37:15;12.70;65.80
47532;DHT22;33273;52.254;7.988;2023-03-30T06:39:41;12.70;65.80
47532;DHT22;33273;52.254;7.988;2023-03-30T06:42:07;12.70;65.50
47532;DHT22;33273;52.254;7.988;2023-03-30T06:44:55;12.70;65.80
47532;DHT22;33273;52.254;7.988;2023-03-30T06:47:22;12.70;65.90
47532;DHT22;33273;52.254;7.988;2023-03-30T06:49:49;12.80;66.10
47532;DHT22;33273;52.254;7.988;2023-03-30T06:52:47;12.80;65.70
47532;DHT22;33273;52.254;7.988;2023-03-30T06:55:13;12.90;65.00
47532;DHT22;33273;52.254;7.988;2023-03-30T06:57:39;12.90;65.10
47532;DHT22;33273;52.254;7.988;2023-03-30T07:00:06;12.90;64.70
47532;DHT22;33273;52.254;7.988;2023-03-30T07:02:39;12.90;64.80
47532;DHT22;33273;52.254;7.988;2023-03-30T07:05:20;13.00;64.80
47532;DHT22;33273;52.254;7.988;2023-03-30T07:08:07;13.10;64.10
47532;DHT22;33273;52.254;7.988;2023-03-30T07:10:36;13.20;64.40
47532;DHT22;33273;52.254;7.988;2023-03-30T07:13:05;13.20;63.60
47532;DHT22;33273;52.254;7.988;2023-03-30T07:15:34;13.30;63.10
47532;DHT22;33273;52.254;7.988;2023-03-30T07:18:02;13.30;62.90
47532;DHT22;33273;52.254;7.988;2023-03-30T07:20:27;13.30;63.40
47532;DHT22;33273;52.254;7.988;2023-03-30T07:23:16;13.30;64.40
47532;DHT22;33273;52.254;7.988;2023-03-30T07:25:44;13.30;67.40
47532;DHT22;33273;52.254;7.988;2023-03-30T07:28:24;13.20;69.70
47532;DHT22;33273;52.254;7.988;2023-03-30T07:30:50;13.10;72.80
47532;DHT22;33273;52.254;7.988;2023-03-30T07:33:20;13.00;75.60
47532;DHT22;33273;52.254;7.988;2023-03-30T07:35:47;13.00;77.70
47532;DHT22;33273;52.254;7.988;2023-03-30T07:38:19;12.90;79.70
47532;DHT22;33273;52.254;7.988;2023-03-30T07:40:50;12.80;82.70
47532;DHT22;33273;52.254;7.988;2023-03-30T07:43:18;12.70;84.10
47532;DHT22;33273;52.254;7.988;2023-03-30T07:45:43;12.60;85.70
47532;DHT22;33273;52.254;7.988;2023-03-30T07:48:17;12.60;87.50
47532;DHT22;33273;52.254;7.988;2023-03-30T07:50:43;12.50;89.50
47532;DHT22;33273;52.254;7.988;2023-03-30T07:53:09;12.60;91.50
47532;DHT22;33273;52.254;7.988;2023-03-30T07:55:37;12.70;92.70
47532;DHT22;33273;52.254;7.988;2023-03-30T07:58:13;12.80;93.70
47532;DHT22;33273;52.254;7.988;2023-03-30T08:00:40;12.90;92.70
47532;DHT22;33273;52.254;7.988;2023-03-30T08:03:38;13.00;91.90
47532;DHT22;33273;52.254;7.988;2023-03-30T08:06:04;13.10;90.90
47532;DHT22;33273;52.254;7.988;2023-03-30T08:08:35;13.20;91.50
47532;DHT22;33273;52.254;7.988;2023-03-30T08:11:06;13.40;91.20
47532;DHT22;33273;52.254;7.988;2023-03-30T08:13:33;13.50;89.00
47532;DHT22;33273;52.254;7.988;2023-03-30T08:16:01;13.50;86.70
47532;DHT22;33273;52.254;7.988;2023-03-30T08:18:27;13.60;84.40
47532;DHT22;33273;52.254;7.988;2023-03-30T08:20:53;13.50;81.40
47532;DHT22;33273;52.254;7.988;2023-03-30T08:23:20;13.50;81.20
47532;DHT22;33273;52.254;7.988;2023-03-30T08:25:46;13.50;81.40
47532;DHT22;33273;52.254;7.988;2023-03-30T08:28:19;13.50;81.00
47532;DHT22;33273;52.254;7.988;2023-03-30T08:30:46;13.50;80.50
47532;DHT22;33273;52.254;7.988;2023-03-30T08:33:12;13.40;80.00
47532;DHT22;33273;52.254;7.988;2023-03-30T08:35:39;13.40;79.70
47532;DHT22;33273;52.254;7.988;2023-03-30T08:38:05;13.40;78.40
47532;DHT22;33273;52.254;7.988;2023-03-30T08:40:41;13.30;79.10
47532;DHT22;33273;52.254;7.988;2023-03-30T08:43:19;13.30;79.20
47532;DHT22;33273;52.254;7.988;2023-03-30T08:45:47;13.40;79.40
47532;DHT22;33273;52.254;7.988;2023-03-30T08:48:20;13.50;78.70
47532;DHT22;33273;52.254;7.988;2023-03-30T08:51:14;13.50;78.20
47532;DHT22;33273;52.254;7.988;2023-03-30T08:53:43;13.50;78.00
47532;DHT22;33273;52.254;7.988;2023-03-30T08:56:28;13.40;78.30
47532;DHT22;33273;52.254;7.988;2023-03-30T09:01:46;13.00;85.10
47532;DHT22;33273;52.254;7.988;2023-03-30T09:07:45;12.80;91.70
47532;DHT22;33273;52.254;7.988;2023-03-30T09:10:17;12.70;92.60
47532;DHT22;33273;52.254;7.988;2023-03-30T09:12:59;12.70;92.80
47532;DHT22;33273;52.254;7.988;2023-03-30T09:15:30;12.70;93.30
47532;DHT22;33273;52.254;7.988;2023-03-30T09:18:16;12.70;92.90
47532;DHT22;33273;52.254;7.988;2023-03-30T09:20:45;12.80;91.80
47532;DHT22;33273;52.254;7.988;2023-03-30T09:23:14;12.90;89.30
47532;DHT22;33273;52.254;7.988;2023-03-30T09:25:41;12.90;89.10
47532;DHT22;33273;52.254;7.988;2023-03-30T09:31:24;13.10;87.40
47532;DHT22;33273;52.254;7.988;2023-03-30T09:34:03;13.20;87.00
47532;DHT22;33273;52.254;7.988;2023-03-30T09:36:55;13.30;85.80
47532;DHT22;33273;52.254;7.988;2023-03-30T09:39:28;13.30;83.60
47532;DHT22;33273;52.254;7.988;2023-03-30T09:42:09;13.40;82.60
47532;DHT22;33273;52.254;7.988;2023-03-30T09:47:27;13.80;83.20
47532;DHT22;33273;52.254;7.988;2023-03-30T09:49:57;14.10;83.30
47532;DHT22;33273;52.254;7.988;2023-03-30T09:52:26;14.30;78.60
47532;DHT22;33273;52.254;7.988;2023-03-30T09:54:53;14.40;74.90
47532;DHT22;33273;52.254;7.988;2023-03-30T09:59:51;14.40;72.90
47532;DHT22;33273;52.254;7.988;2023-03-30T10:02:23;14.40;72.40
47532;DHT22;33273;52.254;7.988;2023-03-30T10:04:54;14.60;74.80
47532;DHT22;33273;52.254;7.988;2023-03-30T10:07:36;14.90;73.40
47532;DHT22;33273;52.254;7.988;2023-03-30T10:10:15;15.10;70.00
47532;DHT22;33273;52.254;7.988;2023-03-30T10:13:03;15.10;64.60
47532;DHT22;33273;52.254;7.988;2023-03-30T10:15:29;15.00;65.20
47532;DHT22;33273;52.254;7.988;2023-03-30T10:17:57;14.80;64.40
47532;DHT22;33273;52.254;7.988;2023-03-30T10:20:35;14.70;61.20
47532;DHT22;33273;52.254;7.988;2023-03-30T10:23:11;14.60;62.40
47532;DHT22;33273;52.254;7.988;2023-03-30T10:25:40;14.50;63.30
47532;DHT22;33273;52.254;7.988;2023-03-30T10:28:25;14.40;63.50
47532;DHT22;33273;52.254;7.988;2023-03-30T10:31:05;14.20;63.50
47532;DHT22;33273;52.254;7.988;2023-03-30T10:33:39;14.00;61.90
47532;DHT22;33273;52.254;7.988;2023-03-30T10:36:08;13.90;62.30
47532;DHT22;33273;52.254;7.988;2023-03-30T10:38:34;13.90;63.80
47532;DHT22;33273;52.254;7.988;2023-03-30T10:41:08;13.90;64.10
47532;DHT22;33273;52.254;7.988;2023-03-30T10:43:35;13.80;63.80
47532;DHT22;33273;52.254;7.988;2023-03-30T10:46:12;13.70;66.60
47532;DHT22;33273;52.254;7.988;2023-03-30T10:54:30;13.80;70.30
47532;DHT22;33273;52.254;7.988;2023-03-30T10:57:14;13.80;69.60
47532;DHT22;33273;52.254;7.988;2023-03-30T11:05:12;13.90;68.40
47532;DHT22;33273;52.254;7.988;2023-03-30T11:12:51;14.10;65.40
47532;DHT22;33273;52.254;7.988;2023-03-30T11:15:28;14.30;64.90
47532;DHT22;33273;52.254;7.988;2023-03-30T11:20:51;14.70;61.50
47532;DHT22;33273;52.254;7.988;2023-03-30T11:26:46;14.70;59.40
47532;DHT22;33273;52.254;7.988;2023-03-30T11:29:37;14.40;59.60
47532;DHT22;33273;52.254;7.988;2023-03-30T11:32:33;14.10;61.30
47532;DHT22;33273;52.254;7.988;2023-03-30T11:40:52;12.70;73.60
47532;DHT22;33273;52.254;7.988;2023-03-30T11:43:29;12.30;76.60
47532;DHT22;33273;52.254;7.988;2023-03-30T11:46:29;11.80;82.00
47532;DHT22;33273;52.254;7.988;2023-03-30T11:49:29;11.40;87.50
47532;DHT22;33273;52.254;7.988;2023-03-30T11:52:26;11.30;90.30
47532;DHT22;33273;52.254;7.988;2023-03-30T11:58:41;11.60;96.10
47532;DHT22;33273;52.254;7.988;2023-03-30T12:04:27;12.40;99.90
47532;DHT22;33273;52.254;7.988;2023-03-30T12:07:00;12.60;99.90
47532;DHT22;33273;52.254;7.988;2023-03-30T12:09:43;12.70;99.90
47532;DHT22;33273;52.254;7.988;2023-03-30T12:12:16;12.70;96.40
47532;DHT22;33273;52.254;7.988;2023-03-30T12:22:58;12.90;95.70
47532;DHT22;33273;52.254;7.988;2023-03-30T12:25:48;13.00;95.40
47532;DHT22;33273;52.254;7.988;2023-03-30T12:28:23;13.00;94.20
47532;DHT22;33273;52.254;7.988;2023-03-30T12:30:55;13.20;96.20
47532;DHT22;33273;52.254;7.988;2023-03-30T12:33:27;13.50;98.90
47532;DHT22;33273;52.254;7.988;2023-03-30T12:39:01;13.80;92.80
47532;DHT22;33273;52.254;7.988;2023-03-30T12:41:41;13.90;86.20
47532;DHT22;33273;52.254;7.988;2023-03-30T12:56:04;14.20;69.50
47532;DHT22;33273;52.254;7.988;2023-03-30T12:58:49;14.30;71.40
47532;DHT22;33273;52.254;7.988;2023-03-30T13:04:15;14.30;64.20
47532;DHT22;33273;52.254;7.988;2023-03-30T13:06:50;14.40;65.30
47532;DHT22;33273;52.254;7.988;2023-03-30T13:14:46;14.80;57.80
47532;DHT22;33273;52.254;7.988;2023-03-30T13:17:23;14.90;57.70
47532;DHT22;33273;52.254;7.988;2023-03-30T13:20:14;14.80;53.10
47532;DHT22;33273;52.254;7.988;2023-03-30T13:23:04;14.90;55.30
47532;DHT22;33273;52.254;7.988;2023-03-30T13:25:36;15.00;54.50
47532;DHT22;33273;52.254;7.988;2023-03-30T13:28:33;15.00;53.70
47532;DHT22;33273;52.254;7.988;2023-03-30T13:40:05;15.00;51.70
47532;DHT22;33273;52.254;7.988;2023-03-30T13:42:44;15.00;51.60
47532;DHT22;33273;52.254;7.988;2023-03-30T13:48:31;15.10;52.30
47532;DHT22;33273;52.254;7.988;2023-03-30T13:51:16;15.10;53.00
47532;DHT22;33273;52.254;7.988;2023-03-30T13:53:51;15.20;53.30
47532;DHT22;33273;52.254;7.988;2023-03-30T13:56:18;15.20;51.70
47532;DHT22;33273;52.254;7.988;2023-03-30T13:59:10;15.30;50.40
47532;DHT22;33273;52.254;7.988;2023-03-30T14:01:39;15.00;50.90
47532;DHT22;33273;52.254;7.988;2023-03-30T14:04:09;14.90;51.30
47532;DHT22;33273;52.254;7.988;2023-03-30T14:06:43;15.00;51.60
47532;DHT22;33273;52.254;7.988;2023-03-30T14:09:13;15.10;51.60
47532;DHT22;33273;52.254;7.988;2023-03-30T14:11:46;15.10;52.40
47532;DHT22;33273;52.254;7.988;2023-03-30T14:16:48;15.20;51.90
47532;DHT22;33273;52.254;7.988;2023-03-30T14:19:35;15.30;53.40
47532;DHT22;33273;52.254;7.988;2023-03-30T14:22:15;15.30;52.40
47532;DHT22;33273;52.254;7.988;2023-03-30T14:25:03;15.30;53.90
47532;DHT22;33273;52.254;7.988;2023-03-30T14:27:36;15.30;53.60
47532;DHT22;33273;52.254;7.988;2023-03-30T14:30:21;15.30;53.80
47532;DHT22;33273;52.254;7.988;2023-03-30T14:33:04;15.20;53.60
47532;DHT22;33273;52.254;7.988;2023-03-30T14:36:09;15.10;53.50
47532;DHT22;33273;52.254;7.988;2023-03-30T14:38:29;15.10;53.20
47532;DHT22;33273;52.254;7.988;2023-03-30T14:40:59;15.00;53.50
47532;DHT22;33273;52.254;7.988;2023-03-30T14:43:28;14.90;54.00
47532;DHT22;33273;52.254;7.988;2023-03-30T14:45:58;14.80;54.30
47532;DHT22;33273;52.254;7.988;2023-03-30T14:48:35;14.80;55.20
47532;DHT22;33273;52.254;7.988;2023-03-30T14:53:47;14.80;54.60
47532;DHT22;33273;52.254;7.988;2023-03-30T14:56:15;14.70;54.80
47532;DHT22;33273;52.254;7.988;2023-03-30T14:58:42;14.60;54.60
47532;DHT22;33273;52.254;7.988;2023-03-30T15:01:14;14.60;55.50
47532;DHT22;33273;52.254;7.988;2023-03-30T15:03:42;14.60;55.90
47532;DHT22;33273;52.254;7.988;2023-03-30T15:06:15;14.60;54.70
47532;DHT22;33273;52.254;7.988;2023-03-30T15:08:45;14.60;55.30
47532;DHT22;33273;52.254;7.988;2023-03-30T15:11:13;14.60;54.00
47532;DHT22;33273;52.254;7.988;2023-03-30T15:13:53;14.60;54.80
47532;DHT22;33273;52.254;7.988;2023-03-30T15:16:31;14.70;53.70
47532;DHT22;33273;52.254;7.988;2023-03-30T15:19:24;14.70;53.20
47532;DHT22;33273;52.254;7.988;2023-03-30T15:21:54;14.60;52.70
47532;DHT22;33273;52.254;7.988;2023-03-30T15:24:29;14.60;53.30
47532;DHT22;33273;52.254;7.988;2023-03-30T15:27:02;14.50;53.50
47532;DHT22;33273;52.254;7.988;2023-03-30T15:29:33;14.50;54.00
47532;DHT22;33273;52.254;7.988;2023-03-30T15:34:30;14.40;54.70
47532;DHT22;33273;52.254;7.988;2023-03-30T15:36:56;14.30;55.40
47532;DHT22;33273;52.254;7.988;2023-03-30T15:39:29;14.20;55.50
47532;DHT22;33273;52.254;7.988;2023-03-30T15:42:03;14.20;56.80
47532;DHT22;33273;52.254;7.988;2023-03-30T15:44:36;14.10;60.20
47532;DHT22;33273;52.254;7.988;2023-03-30T15:47:05;13.90;63.60
47532;DHT22;33273;52.254;7.988;2023-03-30T15:49:48;13.90;65.80
47532;DHT22;33273;52.254;7.988;2023-03-30T15:52:42;13.90;66.40
47532;DHT22;33273;52.254;7.988;2023-03-30T15:55:28;13.90;65.20
47532;DHT22;33273;52.254;7.988;2023-03-30T15:57:54;14.00;67.20
47532;DHT22;33273;52.254;7.988;2023-03-30T16:00:28;14.00;65.40
47532;DHT22;33273;52.254;7.988;2023-03-30T16:02:58;14.00;65.10
47532;DHT22;33273;52.254;7.988;2023-03-30T16:05:31;14.00;65.30
47532;DHT22;33273;52.254;7.988;2023-03-30T16:07:58;14.10;65.20
47532;DHT22;33273;52.254;7.988;2023-03-30T16:10:29;14.10;65.10
47532;DHT22;33273;52.254;7.988;2023-03-30T16:12:58;14.10;64.80
47532;DHT22;33273;52.254;7.988;2023-03-30T16:15:30;14.10;63.30
47532;DHT22;33273;52.254;7.988;2023-03-30T16:17:59;14.10;62.30
47532;DHT22;33273;52.254;7.988;2023-03-30T16:20:27;14.10;62.30
47532;DHT22;33273;52.254;7.988;2023-03-30T16:22:54;14.10;62.80
47532;DHT22;33273;52.254;7.988;2023-03-30T16:25:24;14.00;61.70
47532;DHT22;33273;52.254;7.988;2023-03-30T16:27:55;14.00;62.50
47532;DHT22;33273;52.254;7.988;2023-03-30T16:30:33;13.90;61.90
47532;DHT22;33273;52.254;7.988;2023-03-30T16:33:00;13.90;61.10
47532;DHT22;33273;52.254;7.988;2023-03-30T16:35:27;13.90;60.00
47532;DHT22;33273;52.254;7.988;2023-03-30T16:37:53;13.80;58.30
47532;DHT22;33273;52.254;7.988;2023-03-30T16:40:58;13.80;59.20
47532;DHT22;33273;52.254;7.988;2023-03-30T16:43:25;13.80;58.70
47532;DHT22;33273;52.254;7.988;2023-03-30T16:45:51;13.80;58.10
47532;DHT22;33273;52.254;7.988;2023-03-30T16:48:18;13.80;58.90
47532;DHT22;33273;52.254;7.988;2023-03-30T16:50:52;13.70;58.90
47532;DHT22;33273;52.254;7.988;2023-03-30T16:53:22;13.80;60.20
47532;DHT22;33273;52.254;7.988;2023-03-30T16:55:49;13.70;59.30
47532;DHT22;33273;52.254;7.988;2023-03-30T16:58:15;13.70;59.60
47532;DHT22;33273;52.254;7.988;2023-03-30T17:00:44;13.70;60.10
47532;DHT22;33273;52.254;7.988;2023-03-30T17:03:10;13.80;63.10
47532;DHT22;33273;52.254;7.988;2023-03-30T17:06:16;13.80;61.40
47532;DHT22;33273;52.254;7.988;2023-03-30T17:09:13;13.70;61.70
47532;DHT22;33273;52.254;7.988;2023-03-30T17:11:41;13.70;61.50
47532;DHT22;33273;52.254;7.988;2023-03-30T17:14:07;13.70;61.70
47532;DHT22;33273;52.254;7.988;2023-03-30T17:16:33;13.70;62.90
47532;DHT22;33273;52.254;7.988;2023-03-30T17:18:59;13.70;63.80
47532;DHT22;33273;52.254;7.988;2023-03-30T17:21:25;13.60;65.10
47532;DHT22;33273;52.254;7.988;2023-03-30T17:23:51;13.60;66.10
47532;DHT22;33273;52.254;7.988;2023-03-30T17:26:17;13.50;67.80
47532;DHT22;33273;52.254;7.988;2023-03-30T17:28:44;13.40;68.10
47532;DHT22;33273;52.254;7.988;2023-03-30T17:31:19;13.40;70.00
47532;DHT22;33273;52.254;7.988;2023-03-30T17:33:46;13.40;71.10
47532;DHT22;33273;52.254;7.988;2023-03-30T17:36:21;13.30;69.20
47532;DHT22;33273;52.254;7.988;2023-03-30T17:38:50;13.30;67.70
47532;DHT22;33273;52.254;7.988;2023-03-30T17:41:19;13.30;67.10
47532;DHT22;33273;52.254;7.988;2023-03-30T17:43:46;13.30;66.70
47532;DHT22;33273;52.254;7.988;2023-03-30T17:46:14;13.20;66.40
47532;DHT22;33273;52.254;7.988;2023-03-30T17:48:44;13.20;66.10
47532;DHT22;33273;52.254;7.988;2023-03-30T17:51:10;13.20;65.80
47532;DHT22;33273;52.254;7.988;2023-03-30T17:53:39;13.20;65.40
47532;DHT22;33273;52.254;7.988;2023-03-30T17:56:05;13.10;65.50
47532;DHT22;33273;52.254;7.988;2023-03-30T17:58:33;13.00;65.50
47532;DHT22;33273;52.254;7.988;2023-03-30T18:01:04;13.00;65.80
47532;DHT22;33273;52.254;7.988;2023-03-30T18:03:30;13.00;66.60
47532;DHT22;33273;52.254;7.988;2023-03-30T18:05:58;12.90;66.30
47532;DHT22;33273;52.254;7.988;2023-03-30T18:08:25;12.90;66.70
47532;DHT22;33273;52.254;7.988;2023-03-30T18:11:00;12.80;67.00
47532;DHT22;33273;52.254;7.988;2023-03-30T18:13:28;12.80;67.50
47532;DHT22;33273;52.254;7.988;2023-03-30T18:15:56;12.80;68.40
47532;DHT22;33273;52.254;7.988;2023-03-30T18:18:25;12.70;69.00
47532;DHT22;33273;52.254;7.988;2023-03-30T18:21:01;12.60;69.50
47532;DHT22;33273;52.254;7.988;2023-03-30T18:23:27;12.60;70.00
47532;DHT22;33273;52.254;7.988;2023-03-30T18:25:53;12.60;70.20
47532;DHT22;33273;52.254;7.988;2023-03-30T18:28:24;12.50;71.20
47532;DHT22;33273;52.254;7.988;2023-03-30T18:30:52;12.50;71.80
47532;DHT22;33273;52.254;7.988;2023-03-30T18:33:20;12.50;72.80
47532;DHT22;33273;52.254;7.988;2023-03-30T18:35:48;12.40;73.10
47532;DHT22;33273;52.254;7.988;2023-03-30T18:38:17;12.40;73.90
47532;DHT22;33273;52.254;7.988;2023-03-30T18:40:46;12.40;75.10